Dennis Landing, Mississippi
Current Conditions -  °F | °C
As of 12:15 PM on Monday 24 Nov 2014 (Local Time) from KRNV Reporting Station
Clear Clear  
Wind Chill: 57°   Ceiling: Unl
Heat Index: 57°   Visibility: 10mi
Dew Point: 37°   Wind: 14mph
Humidity: 48%   Direction: 310°NW
Pressure: 29.94"   Gusts: 18mph
Location:  33.9429°N, 90.9264°W
Report Text: KRNV 241815Z AUTO 31012G16KT 10SM CLR 14/03 A2994 RMK AO2 T01390029
Loading
Personal Weather Stations






























Interactive Weather Map New forecast layout! Learn more

10-Day Weather Forecast

Advertisements
Track Severe Weather on mobile